Latest Weather Observations for Narrandera Airport

IDN60801

Issued at 2:34 am EDT Saturday 7 March 2015 (issued every 30 minutes, with the page automatically refreshed every 10 minutes)

About weather observations | Map of weather stations | Latest weather observations for NSW | Other Formats
Station Details ID: 074148 Name: NARRANDERA AIRPORT AWS Lat: -34.70 Lon: 146.51 Height: 145.0 m
Data from the previous 72 hours. | See also: Recent months for locations in New South Wales
Date/Time
EDT
Temp
°C
App
Temp
°C
Dew
Point
Rel
Hum
%
Delta-T
°C
Wind Press
QNH
hPa
Press
MSL
hPa
Rain
since 9 am
mm
Dir
 
Spd
km/h
Gust
km/h
Spd
kts
Gust
kts
07/02:30am 16.8 15.5 9.2 61 4.0 SW 6 11 3 6 1011.6 1011.1 0.0
07/02:00am 16.7 15.5 9.4 62 3.8 SW 6 7 3 4 1011.8 1011.3 0.0
07/01:30am 15.9 15.1 8.2 60 3.9 SW 2 7 1 4 1011.9 1011.4 0.0
07/01:00am 17.3 15.8 8.4 56 4.6 SW 6 9 3 5 1012.1 1011.6 0.0
07/12:30am 18.0 16.6 9.6 58 4.5 SW 7 11 4 6 1012.1 1011.6 0.0
07/12:00am 16.9 15.7 9.6 62 3.8 WSW 6 11 3 6 1012.4 1011.8 0.0
 
Date/Time
EDT
Temp
°C
App
Temp
°C
Dew
Point
Rel
Hum
%
Delta-T
°C
Wind Press
QNH
hPa
Press
MSL
hPa
Rain
since 9 am
mm
Dir
 
Spd
km/h
Gust
km/h
Spd
kts
Gust
kts
06/11:30pm 16.1 14.5 7.8 58 4.2 WSW 6 9 3 5 1012.4 1011.8 0.0
06/11:00pm 17.2 16.3 7.8 54 4.8 WSW 2 7 1 4 1012.2 1011.7 0.0
06/10:30pm 18.1 17.2 7.8 51 5.3 W 2 6 1 3 1012.5 1011.9 0.0
06/10:00pm 19.6 18.1 8.6 49 5.8 WSW 6 9 3 5 1012.5 1011.9 0.0
06/09:30pm 20.1 18.6 8.4 47 6.1 WSW 6 9 3 5 1012.1 1011.6 0.0
06/09:00pm 20.5 18.5 8.5 46 6.3 W 9 11 5 6 1011.8 1011.3 0.0
06/08:30pm 21.4 19.3 8.3 43 6.9 WSW 9 13 5 7 1011.4 1010.9 0.0
06/08:00pm 22.2 18.2 8.3 41 7.4 SW 19 26 10 14 1011.1 1010.6 0.0
06/07:30pm 22.7 19.9 8.4 40 7.6 SW 13 24 7 13 1010.9 1010.4 0.0
06/07:00pm 23.0 18.4 8.3 39 7.8 SW 22 32 12 17 1010.8 1010.3 0.0
06/06:30pm 23.6 19.7 8.5 38 8.1 SW 19 26 10 14 1010.7 1010.2 0.0
06/06:00pm 23.7 19.7 8.2 37 8.3 SSW 19 28 10 15 1010.4 1009.9 0.0
06/05:30pm 24.2 19.6 8.2 36 8.6 SW 22 32 12 17 1010.3 1009.8 0.0
06/05:00pm 24.0 19.7 8.0 36 8.5 SW 20 28 11 15 1010.3 1009.8 0.0
06/04:30pm 24.1 19.8 7.7 35 8.7 SW 20 28 11 15 1010.5 1010.0 0.0
06/04:00pm 23.8 19.0 7.4 35 8.6 WSW 22 35 12 19 1010.8 1010.3 0.0
06/03:30pm 24.0 19.3 7.6 35 8.7 SW 22 37 12 20 1011.0 1010.5 0.0
06/03:00pm 23.3 17.7 7.0 35 8.5 WSW 26 35 14 19 1011.5 1011.0 0.0
06/02:30pm 22.8 18.4 7.4 37 8.1 SW 20 33 11 18 1011.9 1011.4 0.0
06/02:00pm 21.9 16.6 6.6 37 7.9 WSW 24 35 13 19 1012.5 1011.9 0.0
06/01:30pm 22.0 17.1 6.7 37 7.9 SW 22 37 12 20 1012.6 1012.0 0.0
06/01:00pm 21.6 16.5 5.9 36 7.9 WSW 22 32 12 17 1012.8 1012.2 0.0
06/12:30pm 20.3 16.0 5.1 37 7.5 WSW 17 24 9 13 1013.5 1012.9 0.0
06/12:00pm 19.6 14.8 4.9 38 7.2 WSW 19 33 10 18 1013.7 1013.1 0.0
06/11:30am 17.9 12.8 4.1 40 6.6 SW 20 32 11 17 1014.4 1013.8 0.0
06/11:00am 18.2 13.2 4.4 40 6.6 SW 20 30 11 16 1014.2 1013.6 0.0
06/10:30am 17.4 12.4 4.4 42 6.2 W 20 28 11 15 1014.1 1013.5 0.0
06/10:00am 16.0 10.9 4.1 45 5.6 SW 20 30 11 16 1014.4 1013.8 0.0
06/09:30am 15.4 11.0 4.5 48 5.1 SW 17 26 9 14 1014.5 1013.9 0.0
06/09:00am 14.5 10.3 3.6 48 5.0 WSW 15 19 8 10 1014.0 1013.4 -
06/08:30am 13.5 10.3 3.3 50 4.6 SW 9 13 5 7 1014.0 1013.4 -
06/08:00am 12.4 9.1 2.3 50 4.4 SSW 9 13 5 7 1013.8 1013.2 -
06/07:30am 11.5 8.0 1.5 50 4.3 SW 9 13 5 7 1013.6 1013.0 -
06/07:00am 11.6 8.1 1.0 48 4.5 SW 9 13 5 7 1013.1 1012.5 -
06/06:30am 11.5 7.8 -0.3 44 4.8 WSW 9 13 5 7 1013.1 1012.5 -
06/06:00am 11.6 8.2 -0.5 43 4.9 SW 7 11 4 6 1013.1 1012.5 -
06/05:30am 11.9 8.2 0.1 44 4.9 SW 9 13 5 7 1013.3 1012.7 -
06/05:00am 9.0 7.1 0.5 55 3.4 CALM 0 0 0 0 1012.9 1012.3 -
06/04:30am 8.4 6.4 -0.4 54 3.5 CALM 0 0 0 0 1013.3 1012.7 -
06/04:00am 9.5 7.5 -0.4 50 4.0 CALM 0 0 0 0 1013.3 1012.7 -
06/03:30am 9.7 7.5 -1.3 46 4.3 CALM 0 0 0 0 1013.6 1013.0 -
06/03:00am 10.2 8.3 0.3 50 4.0 CALM 0 0 0 0 1013.7 1013.1 0.0
06/02:30am 10.8 8.7 -0.9 44 4.7 CALM 0 0 0 0 1013.9 1013.3 -
06/02:00am 10.5 8.4 -0.6 46 4.5 CALM 0 0 0 0 1014.1 1013.5 -
06/01:30am 10.6 8.4 -1.8 42 4.8 CALM 0 0 0 0 1014.5 1013.9 -
06/01:00am 10.9 8.6 -2.1 40 5.1 CALM 0 0 0 0 1014.7 1014.1 -
06/12:30am 11.7 9.3 -2.9 36 5.6 CALM 0 0 0 0 1015.0 1014.4 -
06/12:00am 12.4 10.0 -3.0 34 6.0 CALM 0 0 0 0 1015.1 1014.5 -
 
Date/Time
EDT
Temp
°C
App
Temp
°C
Dew
Point
Rel
Hum
%
Delta-T
°C
Wind Press
QNH
hPa
Press
MSL
hPa
Rain
since 9 am
mm
Dir
 
Spd
km/h
Gust
km/h
Spd
kts
Gust
kts
05/11:30pm 12.7 8.5 -3.5 32 6.2 NNW 9 9 5 5 1015.4 1014.8 -
05/11:00pm 14.5 12.1 -3.3 29 7.0 CALM 0 0 0 0 1015.6 1015.0 -
05/10:30pm 15.8 12.3 -3.1 27 7.6 SW 6 9 3 5 1015.7 1015.1 -
05/10:00pm 16.6 12.4 -3.5 25 8.1 SSW 9 13 5 7 1015.7 1015.1 -
05/09:30pm 17.6 13.0 -4.3 22 8.7 SSW 11 15 6 8 1015.6 1015.0 -
05/09:00pm 18.6 13.5 -4.8 20 9.3 SSW 13 17 7 9 1015.4 1014.8 0.0
05/08:30pm 19.2 12.8 -5.0 19 9.7 SSW 20 26 11 14 1015.0 1014.4 -
05/08:00pm 19.8 12.6 -5.2 18 10.0 SSW 24 32 13 17 1014.8 1014.2 -
05/07:30pm 20.6 12.9 -6.1 16 10.6 SSW 26 35 14 19 1014.3 1013.7 -
05/07:00pm 21.5 14.1 -3.8 18 10.6 SW 26 39 14 21 1014.1 1013.5 -
05/06:30pm 21.9 15.0 -2.7 19 10.5 SW 24 35 13 19 1013.8 1013.2 -
05/06:00pm 22.0 14.0 -2.0 20 10.4 SW 30 50 16 27 1013.7 1013.1 -
05/05:55pm 21.9 13.5 -2.7 19 10.5 SSW 32 50 17 27 1013.7 1013.1 -
05/05:30pm 22.3 14.7 -2.4 19 10.7 SW 28 44 15 24 1013.7 1013.1 -
05/05:00pm 22.6 14.5 -2.9 18 11.0 SW 30 43 16 23 1013.9 1013.3 -
05/04:38pm 23.0 15.0 -2.6 18 11.1 SW 30 48 16 26 1013.9 1013.3 -
05/04:30pm 22.8 13.9 -2.0 19 10.9 SSW 35 48 19 26 1014.0 1013.4 -
05/04:08pm 22.1 14.2 -1.9 20 10.5 SW 30 52 16 28 1014.3 1013.7 -
05/04:00pm 22.4 14.3 -0.3 22 10.2 SSW 32 43 17 23 1014.2 1013.6 -
05/03:30pm 22.4 14.3 -0.3 22 10.2 SSW 32 54 17 29 1014.6 1014.0 -
05/03:00pm 22.1 13.4 -0.6 22 10.2 SSW 35 54 19 29 1014.9 1014.3 -
05/02:43pm 22.4 14.0 -1.0 21 10.4 SSW 33 54 18 29 1014.9 1014.3 -
05/02:30pm 21.5 13.1 -1.1 22 10.0 SW 33 50 18 27 1015.2 1014.6 -
05/02:00pm 22.3 14.2 -0.4 22 10.2 SW 32 52 17 28 1015.1 1014.5 -
05/01:30pm 20.7 12.9 -0.6 24 9.4 SW 30 48 16 26 1015.3 1014.7 -
05/01:07pm 21.1 12.7 -1.4 22 9.8 SSW 33 54 18 29 1015.7 1015.1 -
05/01:00pm 20.4 12.6 -0.8 24 9.3 SSW 30 46 16 25 1015.7 1015.1 -
05/12:40pm 20.6 12.4 -0.7 24 9.4 SSW 32 50 17 27 1015.9 1015.3 -
05/12:30pm 20.0 11.2 -1.2 24 9.2 SSW 35 46 19 25 1016.1 1015.5 -
05/12:00pm 19.4 10.5 -1.7 24 9.0 SSW 35 54 19 29 1016.2 1015.7 -
05/11:30am 19.1 9.0 -2.5 23 9.1 SSW 41 59 22 32 1016.7 1016.2 0.2
05/11:23am 19.0 10.0 -2.6 23 9.0 SSW 35 54 19 29 1016.6 1016.1 0.2
05/10:32am 17.8 8.4 -2.5 25 8.4 SW 37 56 20 30 1016.5 1016.0 0.0
05/10:30am 17.3 8.5 -1.4 28 7.9 SW 35 50 19 27 1016.3 1015.8 0.0
05/10:07am 17.6 8.4 1.2 33 7.3 SSW 39 57 21 31 1016.1 1015.5 0.0
05/10:00am 17.3 8.0 0.9 33 7.3 SSW 39 56 21 30 1015.8 1015.2 0.0
05/09:47am 17.3 8.3 0.0 31 7.5 SSW 37 56 20 30 1015.8 1015.2 0.0
05/09:30am 17.2 10.0 6.1 48 5.5 SW 33 46 18 25 1015.4 1014.8 0.0
05/09:00am 16.1 9.4 9.5 65 3.4 SW 35 52 19 28 1014.9 1014.3 0.0
05/08:39am 16.0 10.7 9.7 66 3.3 SW 28 54 15 29 1014.6 1014.0 0.0
05/08:30am 15.5 11.0 10.1 70 2.8 SW 24 39 13 21 1014.6 1014.0 0.0
05/08:06am 14.8 9.5 10.0 73 2.5 SW 28 52 15 28 1014.6 1014.0 0.0
05/08:00am 16.4 12.2 9.8 65 3.5 SW 22 32 12 17 1013.9 1013.3 0.0
05/07:30am 16.1 12.3 9.1 63 3.6 WSW 19 32 10 17 1013.5 1012.9 0.0
05/07:00am 15.9 11.8 8.6 62 3.7 WSW 20 30 11 16 1012.9 1012.3 0.0
05/06:30am 16.2 12.7 8.7 61 3.9 WSW 17 26 9 14 1012.5 1011.9 0.0
05/06:00am 16.5 13.0 8.7 60 4.0 WSW 17 26 9 14 1012.0 1011.5 0.0
05/05:30am 16.7 12.5 8.4 58 4.3 WSW 20 33 11 18 1011.7 1011.2 0.0
05/05:00am 17.1 13.0 8.5 57 4.4 WSW 20 32 11 17 1011.7 1011.2 0.0
05/04:30am 17.5 13.3 8.4 55 4.7 SW 20 32 11 17 1011.8 1011.3 0.0
05/04:00am 18.0 13.8 8.3 53 5.0 SW 20 30 11 16 1011.6 1011.1 0.0
05/03:30am 18.6 14.3 7.7 49 5.6 WSW 20 37 11 20 1011.5 1011.0 0.0
05/03:00am 18.8 14.6 5.6 42 6.5 WSW 17 24 9 13 1011.5 1011.0 0.0
05/02:30am 19.4 14.9 4.3 37 7.3 WSW 17 26 9 14 1011.4 1010.9 0.0
05/02:00am 20.1 15.5 3.8 34 7.8 WSW 17 30 9 16 1011.4 1010.9 0.0
05/01:30am 20.1 16.3 2.0 30 8.4 WSW 11 19 6 10 1011.3 1010.8 0.0
05/01:00am 19.6 16.5 1.1 29 8.4 WSW 7 13 4 7 1011.3 1010.8 0.0
05/12:30am 19.9 16.7 0.9 28 8.6 WSW 7 11 4 6 1011.5 1011.0 0.0
05/12:00am 20.6 16.7 1.0 27 8.9 WSW 11 13 6 7 1011.5 1011.0 0.0
 
Date/Time
EDT
Temp
°C
App
Temp
°C
Dew
Point
Rel
Hum
%
Delta-T
°C
Wind Press
QNH
hPa
Press
MSL
hPa
Rain
since 9 am
mm
Dir
 
Spd
km/h
Gust
km/h
Spd
kts
Gust
kts
04/11:30pm 21.5 17.2 0.7 25 9.5 WSW 13 19 7 10 1011.5 1011.0 0.0
04/11:00pm 21.9 18.0 1.0 25 9.6 WSW 11 17 6 9 1011.8 1011.3 0.0
04/10:30pm 22.6 19.1 1.0 24 10.0 WSW 9 15 5 8 1011.9 1011.4 0.0
04/10:00pm 23.2 19.6 0.9 23 10.4 WSW 9 17 5 9 1011.9 1011.4 0.0
04/09:30pm 23.7 20.0 0.1 21 10.8 W 9 13 5 7 1011.6 1011.1 0.0
04/09:00pm 24.4 20.7 0.0 20 11.3 W 9 13 5 7 1011.4 1010.9 0.0
04/08:30pm 25.6 22.0 0.3 19 11.8 WSW 9 13 5 7 1011.1 1010.6 0.0
04/08:00pm 26.6 22.1 -0.4 17 12.6 W 13 20 7 11 1010.8 1010.3 0.0
04/07:30pm 28.2 22.9 -0.9 15 13.6 WSW 17 30 9 16 1010.7 1010.2 0.0
04/07:00pm 29.4 24.3 -1.9 13 14.5 WSW 15 24 8 13 1010.6 1010.1 0.0
04/06:30pm 30.1 24.7 -1.3 13 14.8 WSW 17 24 9 13 1010.6 1010.1 0.0
04/06:00pm 30.4 24.8 -0.1 14 14.7 WSW 19 32 10 17 1010.5 1010.0 0.0
04/05:30pm 31.0 25.3 0.4 14 14.9 W 20 26 11 14 1010.5 1010.0 0.0
04/05:00pm 31.6 25.6 -1.2 12 15.6 WSW 20 35 11 19 1010.6 1010.1 0.0
04/04:30pm 31.6 26.0 0.9 14 15.1 W 20 32 11 17 1010.7 1010.2 0.0
04/04:00pm 30.8 25.2 0.2 14 14.9 SW 19 30 10 16 1011.3 1010.8 0.0
04/03:30pm 30.3 24.3 -1.2 13 14.9 W 20 33 11 18 1011.6 1011.1 0.0
04/03:00pm 30.7 24.9 0.2 14 14.8 WSW 20 30 11 16 1012.0 1011.5 0.0
04/02:30pm 30.7 24.5 -4.4 10 15.7 SW 19 28 10 15 1012.4 1011.8 0.0
04/02:00pm 30.6 25.3 1.9 16 14.3 WSW 19 28 10 15 1012.8 1012.2 0.0
04/01:30pm 29.7 25.5 3.6 19 13.3 SW 15 24 8 13 1013.1 1012.5 0.0
04/01:00pm 29.2 25.4 3.9 20 12.9 WSW 13 24 7 13 1013.6 1013.0 0.0
04/12:30pm 28.4 23.9 4.0 21 12.4 SW 17 24 9 13 1014.0 1013.4 0.0
04/12:00pm 28.1 25.4 5.6 24 11.8 SSW 9 19 5 10 1014.4 1013.8 0.0
04/11:30am 27.4 24.3 5.6 25 11.4 SW 11 17 6 9 1014.8 1014.2 0.0
04/11:00am 26.6 25.3 6.1 27 10.7 WSW 2 11 1 6 1014.8 1014.2 0.0
04/10:30am 25.1 23.8 5.8 29 10.0 WSW 2 11 1 6 1014.9 1014.3 0.0
04/10:00am 22.9 21.3 6.2 34 8.5 WSW 4 9 2 5 1015.1 1014.5 0.0
04/09:30am 21.9 19.1 5.3 34 8.3 SSW 9 11 5 6 1015.1 1014.5 0.0
04/09:00am 20.9 19.9 5.7 37 7.6 CALM 0 0 0 0 1015.0 1014.4 0.0
04/08:30am 18.3 17.3 5.5 43 6.3 CALM 0 0 0 0 1014.8 1014.2 0.0
04/08:00am 17.0 16.1 6.2 49 5.3 CALM 0 0 0 0 1014.3 1013.7 0.0
04/07:30am 13.3 12.3 5.7 60 3.6 CALM 0 0 0 0 1014.1 1013.5 0.0
04/07:00am 12.8 11.5 4.3 56 3.9 CALM 0 0 0 0 1013.5 1012.9 0.0
04/06:30am 13.1 11.9 4.5 56 4.0 CALM 0 0 0 0 1013.2 1012.6 0.0
04/06:00am 13.3 12.1 4.7 56 4.0 CALM 0 0 0 0 1013.0 1012.4 0.0
04/05:30am 13.7 12.8 6.1 60 3.6 CALM 0 0 0 0 1012.6 1012.0 0.0
04/05:00am 13.9 12.7 4.5 53 4.4 CALM 0 0 0 0 1012.5 1011.9 0.0
04/04:30am 13.9 12.7 4.8 54 4.3 CALM 0 0 0 0 1012.6 1012.0 0.0
04/04:00am 15.4 14.2 4.5 48 5.1 CALM 0 0 0 0 1012.9 1012.3 0.0
04/03:30am 15.0 13.8 4.7 50 4.8 CALM 0 0 0 0 1012.8 1012.2 0.0
04/03:00am 15.5 14.1 3.6 45 5.5 CALM 0 0 0 0 1013.0 1012.4 0.0

Other Formats:

Comma delimited format used in spreadsheet applications
http://www.bom.gov.au/fwo/IDN60801/IDN60801.95706.axf

JavaScript Object Notation format (JSON) in row-major order
http://www.bom.gov.au/fwo/IDN60801/IDN60801.95706.json